createdAt,value
2023-02-02T00:02:17.092Z,8.37
2023-02-02T00:04:43.421Z,8.37
2023-02-02T00:07:09.738Z,8.33
2023-02-02T00:09:36.063Z,8.17
2023-02-02T00:12:02.498Z,8.10
2023-02-02T00:14:28.833Z,8.10
2023-02-02T00:16:57.108Z,8.15
2023-02-02T00:19:24.656Z,8.08
2023-02-02T00:21:51.001Z,8.07
2023-02-02T00:24:17.756Z,7.98
2023-02-02T00:26:45.009Z,7.94
2023-02-02T00:29:14.085Z,7.90
2023-02-02T00:31:40.425Z,7.97
2023-02-02T00:34:09.612Z,8.03
2023-02-02T00:36:35.925Z,7.87
2023-02-02T00:39:02.268Z,7.85
2023-02-02T00:41:28.583Z,7.87
2023-02-02T00:43:54.885Z,7.83
2023-02-02T00:46:21.215Z,7.91
2023-02-02T00:48:47.549Z,7.99
2023-02-02T00:51:15.659Z,8.00
2023-02-02T00:53:41.981Z,8.04
2023-02-02T00:56:08.277Z,8.08
2023-02-02T00:58:34.597Z,8.08
2023-02-02T01:01:01.192Z,8.03
2023-02-02T01:03:27.506Z,8.12
2023-02-02T01:05:53.830Z,8.14
2023-02-02T01:08:21.487Z,8.25
2023-02-02T01:10:47.804Z,8.13
2023-02-02T01:13:14.123Z,8.17
2023-02-02T01:15:40.428Z,8.16
2023-02-02T01:18:06.752Z,8.22
2023-02-02T01:20:33.114Z,8.28
2023-02-02T01:22:59.445Z,8.16
2023-02-02T01:25:27.177Z,8.24
2023-02-02T01:27:53.468Z,8.20
2023-02-02T01:30:19.775Z,8.25
2023-02-02T01:32:46.107Z,8.25
2023-02-02T01:35:12.404Z,8.33
2023-02-02T01:37:40.446Z,8.24
2023-02-02T01:40:07.412Z,8.29
2023-02-02T01:42:35.062Z,8.38
2023-02-02T01:45:07.104Z,8.44
2023-02-02T01:47:35.918Z,8.36
2023-02-02T01:50:02.921Z,8.23
2023-02-02T01:52:30.243Z,8.30
2023-02-02T01:54:58.909Z,8.51
2023-02-02T01:57:27.439Z,8.40
2023-02-02T01:59:56.846Z,8.30
2023-02-02T02:02:24.436Z,8.35
2023-02-02T02:04:50.993Z,8.43
2023-02-02T02:07:17.418Z,8.37
2023-02-02T02:09:43.731Z,8.30
2023-02-02T02:12:11.148Z,8.34
2023-02-02T02:14:37.501Z,8.32
2023-02-02T02:17:12.780Z,8.27
2023-02-02T02:20:04.473Z,8.28
2023-02-02T02:22:37.472Z,8.32
2023-02-02T02:25:16.281Z,8.27
2023-02-02T02:27:57.598Z,8.29
2023-02-02T02:30:44.760Z,8.32
2023-02-02T02:33:15.404Z,8.38
2023-02-02T02:35:45.636Z,8.29
2023-02-02T02:38:16.626Z,8.33
2023-02-02T02:40:46.111Z,8.34
2023-02-02T02:43:14.688Z,8.34
2023-02-02T02:45:41.088Z,8.28
2023-02-02T02:48:08.621Z,8.27
2023-02-02T02:50:36.281Z,8.22
2023-02-02T02:53:03.301Z,8.38
2023-02-02T02:55:31.652Z,8.29
2023-02-02T02:58:05.170Z,8.22
2023-02-02T03:00:36.802Z,8.30
2023-02-02T03:03:07.731Z,8.39
2023-02-02T03:05:40.563Z,8.37
2023-02-02T03:08:10.462Z,8.40
2023-02-02T03:10:38.276Z,8.31
2023-02-02T03:13:07.298Z,8.32
2023-02-02T03:15:33.708Z,8.38
2023-02-02T03:18:00.251Z,8.39
2023-02-02T03:20:26.547Z,8.34
2023-02-02T03:22:54.165Z,8.36
2023-02-02T03:25:20.456Z,8.30
2023-02-02T03:27:46.898Z,8.36
2023-02-02T03:30:13.747Z,8.32
2023-02-02T03:32:40.407Z,8.33
2023-02-02T03:35:07.558Z,8.33
2023-02-02T03:37:34.409Z,8.38
2023-02-02T03:40:02.174Z,8.32
2023-02-02T03:42:28.519Z,8.25
2023-02-02T03:44:54.835Z,8.22
2023-02-02T03:47:21.161Z,8.43
2023-02-02T03:49:47.463Z,8.24
2023-02-02T03:52:13.796Z,8.30
2023-02-02T03:54:40.139Z,8.34
2023-02-02T03:57:07.767Z,8.30
2023-02-02T03:59:34.121Z,8.26
2023-02-02T04:02:00.514Z,8.19
2023-02-02T04:04:26.862Z,8.19
2023-02-02T04:06:53.176Z,8.30
2023-02-02T04:09:19.593Z,8.20
2023-02-02T04:11:45.930Z,8.21
2023-02-02T04:14:13.879Z,8.22
2023-02-02T04:16:40.255Z,8.14
2023-02-02T04:19:06.649Z,8.05
2023-02-02T04:21:33.051Z,8.20
2023-02-02T04:23:59.463Z,8.24
2023-02-02T04:26:25.824Z,8.26
2023-02-02T04:28:52.367Z,8.24
2023-02-02T04:31:20.264Z,8.32
2023-02-02T04:33:46.612Z,8.38
2023-02-02T04:36:12.904Z,8.29
2023-02-02T04:38:39.208Z,8.28
2023-02-02T04:41:06.477Z,8.29
2023-02-02T04:43:33.353Z,8.35
2023-02-02T04:45:59.699Z,8.20
2023-02-02T04:48:27.486Z,8.25
2023-02-02T04:50:58.096Z,8.20
2023-02-02T04:53:24.502Z,8.20
2023-02-02T04:55:50.842Z,8.29
2023-02-02T04:58:17.171Z,8.26
2023-02-02T05:00:43.505Z,8.21
2023-02-02T05:03:09.829Z,8.28
2023-02-02T05:05:37.514Z,8.33
2023-02-02T05:08:04.084Z,8.28
2023-02-02T05:10:30.427Z,8.31
2023-02-02T05:12:56.745Z,8.28
2023-02-02T05:15:23.438Z,8.23
2023-02-02T05:17:49.893Z,8.24
2023-02-02T05:20:16.677Z,8.21
2023-02-02T05:22:44.376Z,8.20
2023-02-02T05:25:10.709Z,8.28
2023-02-02T05:27:37.154Z,8.20
2023-02-02T05:30:03.962Z,8.14
2023-02-02T05:32:30.260Z,8.20
2023-02-02T05:34:56.560Z,8.30
2023-02-02T05:37:22.844Z,8.22
2023-02-02T05:39:50.467Z,8.31
2023-02-02T05:42:16.799Z,8.24
2023-02-02T05:44:43.097Z,8.26
2023-02-02T05:47:09.409Z,8.26
2023-02-02T05:49:35.709Z,8.35
2023-02-02T05:52:02.061Z,8.39
2023-02-02T05:54:28.365Z,8.25
2023-02-02T05:56:56.035Z,8.23
2023-02-02T05:59:22.678Z,8.33
2023-02-02T06:01:49.347Z,8.35
2023-02-02T06:04:16.104Z,8.48
2023-02-02T06:06:42.502Z,8.38
2023-02-02T06:09:08.966Z,8.34
2023-02-02T06:11:35.379Z,8.41
2023-02-02T06:14:03.090Z,8.39
2023-02-02T06:16:29.413Z,8.39
2023-02-02T06:18:55.972Z,8.37
2023-02-02T06:21:22.392Z,8.34
2023-02-02T06:23:48.719Z,8.35
2023-02-02T06:26:16.254Z,8.40
2023-02-02T06:28:42.985Z,8.38
2023-02-02T06:31:11.372Z,8.39
2023-02-02T06:33:37.861Z,8.33
2023-02-02T06:36:05.709Z,8.49
2023-02-02T06:38:32.252Z,8.44
2023-02-02T06:40:59.271Z,8.39
2023-02-02T06:43:25.658Z,8.33
2023-02-02T06:45:52.007Z,8.35
2023-02-02T06:48:19.707Z,8.42
2023-02-02T06:50:46.060Z,8.45
2023-02-02T06:53:12.401Z,8.43
2023-02-02T06:55:38.825Z,8.38
2023-02-02T06:58:05.174Z,8.34
2023-02-02T07:00:31.556Z,8.25
2023-02-02T07:02:58.022Z,8.32
2023-02-02T07:05:29.332Z,8.37
2023-02-02T07:07:56.745Z,8.47
2023-02-02T07:11:09.483Z,8.38
2023-02-02T07:13:09.365Z,8.32
2023-02-02T07:15:37.987Z,8.32
2023-02-02T07:18:04.646Z,8.33
2023-02-02T07:20:32.855Z,8.39
2023-02-02T07:22:59.295Z,8.29
2023-02-02T07:25:26.043Z,8.40
2023-02-02T07:27:52.915Z,8.38
2023-02-02T07:30:19.558Z,8.49
2023-02-02T07:32:46.671Z,8.41
2023-02-02T07:35:13.013Z,8.35
2023-02-02T07:37:40.655Z,8.43
2023-02-02T07:40:07.705Z,8.43
2023-02-02T07:42:34.169Z,8.39
2023-02-02T07:45:00.544Z,8.37
2023-02-02T07:47:46.802Z,8.40
2023-02-02T07:50:13.649Z,8.34
2023-02-02T07:52:41.402Z,8.32
2023-02-02T07:55:14.666Z,8.42
2023-02-02T07:57:41.435Z,8.41
2023-02-02T08:00:08.160Z,8.38
2023-02-02T08:02:34.670Z,8.47
2023-02-02T08:05:01.006Z,8.48
2023-02-02T08:07:27.453Z,8.37
2023-02-02T08:09:55.351Z,8.47
2023-02-02T08:12:22.364Z,8.35
2023-02-02T08:14:49.938Z,8.38
2023-02-02T08:17:16.297Z,8.46
2023-02-02T08:19:42.653Z,8.47
2023-02-02T08:22:09.023Z,8.46
2023-02-02T08:24:35.407Z,8.43
2023-02-02T08:27:03.248Z,8.51
2023-02-02T08:29:29.569Z,8.48
2023-02-02T08:31:55.927Z,8.47
2023-02-02T08:34:22.285Z,8.53
2023-02-02T08:36:48.629Z,8.53
2023-02-02T08:39:14.913Z,8.55
2023-02-02T08:41:42.782Z,8.54
2023-02-02T08:44:13.279Z,8.51
2023-02-02T08:46:39.769Z,8.63
2023-02-02T08:49:06.087Z,8.56
2023-02-02T08:51:32.456Z,8.62
2023-02-02T08:53:58.776Z,8.47
2023-02-02T08:56:25.076Z,8.56
2023-02-02T08:58:52.553Z,8.79
2023-02-02T09:01:21.404Z,8.71
2023-02-02T09:03:48.167Z,8.72
2023-02-02T09:06:15.597Z,8.69
2023-02-02T09:08:42.300Z,8.62
2023-02-02T09:11:10.001Z,8.65
2023-02-02T09:13:37.394Z,8.83
2023-02-02T09:16:04.850Z,8.72
2023-02-02T09:18:32.724Z,8.72
2023-02-02T09:20:59.860Z,8.78
2023-02-02T09:23:26.303Z,8.73
2023-02-02T09:25:52.648Z,8.76
2023-02-02T09:28:18.973Z,8.86
2023-02-02T09:30:45.399Z,8.89
2023-02-02T09:33:11.715Z,8.81
2023-02-02T09:35:39.355Z,8.88
2023-02-02T09:38:05.695Z,8.83
2023-02-02T09:40:32.949Z,8.86
2023-02-02T09:43:03.274Z,8.78
2023-02-02T09:45:36.800Z,8.84
2023-02-02T09:48:12.194Z,8.88
2023-02-02T09:50:46.391Z,8.92
2023-02-02T09:53:19.157Z,8.89
2023-02-02T09:55:47.851Z,8.96
2023-02-02T09:58:18.599Z,9.00
2023-02-02T10:00:46.564Z,8.99
2023-02-02T10:03:15.805Z,9.02
2023-02-02T10:05:46.835Z,9.03
2023-02-02T10:08:33.672Z,9.03
2023-02-02T10:11:02.905Z,9.02
2023-02-02T10:13:32.472Z,9.04
2023-02-02T10:16:02.318Z,9.02
2023-02-02T10:18:33.648Z,9.08
2023-02-02T10:21:02.843Z,9.14
2023-02-02T10:23:30.858Z,9.06
2023-02-02T10:25:59.182Z,9.08
2023-02-02T10:28:35.258Z,9.01
2023-02-02T10:31:01.951Z,9.03
2023-02-02T10:33:33.336Z,9.00
2023-02-02T10:36:07.183Z,8.99
2023-02-02T10:38:37.889Z,9.02
2023-02-02T10:41:10.703Z,9.09
2023-02-02T10:43:51.420Z,9.12
2023-02-02T10:46:21.044Z,9.13
2023-02-02T10:48:48.408Z,9.17
2023-02-02T10:51:18.480Z,9.12
2023-02-02T10:53:48.095Z,9.09
2023-02-02T10:56:14.540Z,9.12
2023-02-02T10:58:44.718Z,9.13
2023-02-02T11:01:11.404Z,9.20
2023-02-02T11:03:38.904Z,9.32
2023-02-02T11:06:06.885Z,9.27
2023-02-02T11:08:35.625Z,9.28
2023-02-02T11:11:11.108Z,9.28
2023-02-02T11:13:41.333Z,9.18
2023-02-02T11:16:21.338Z,9.23
2023-02-02T11:18:48.009Z,9.27
2023-02-02T11:21:26.165Z,9.27
2023-02-02T11:23:55.392Z,9.28
2023-02-02T11:26:22.483Z,9.25
2023-02-02T11:28:49.379Z,9.27
2023-02-02T11:31:31.748Z,9.21
2023-02-02T11:34:09.231Z,9.29
2023-02-02T11:36:35.524Z,9.31
2023-02-02T11:39:20.320Z,9.39
2023-02-02T11:41:46.692Z,9.27
2023-02-02T11:44:20.590Z,9.35
2023-02-02T11:46:47.027Z,9.40
2023-02-02T11:49:15.549Z,9.43
2023-02-02T11:51:42.281Z,9.48
2023-02-02T11:54:28.167Z,9.46
2023-02-02T11:56:57.398Z,9.41
2023-02-02T11:59:34.927Z,9.41
2023-02-02T12:02:19.890Z,9.45
2023-02-02T12:04:46.920Z,9.42
2023-02-02T12:07:18.362Z,9.38
2023-02-02T12:09:44.959Z,9.35
2023-02-02T12:12:20.491Z,9.34
2023-02-02T12:14:52.191Z,9.38
2023-02-02T12:17:29.857Z,9.47
2023-02-02T12:20:02.012Z,9.55
2023-02-02T12:22:36.702Z,9.43
2023-02-02T12:25:09.594Z,9.36
2023-02-02T12:27:42.502Z,9.38
2023-02-02T12:30:20.466Z,9.40
2023-02-02T12:32:56.073Z,9.43
2023-02-02T12:35:29.173Z,9.45
2023-02-02T12:38:03.527Z,9.37
2023-02-02T12:40:39.419Z,9.43
2023-02-02T12:43:10.769Z,9.45
2023-02-02T12:45:51.687Z,9.37
2023-02-02T12:48:26.861Z,9.46
2023-02-02T12:51:05.038Z,9.44
2023-02-02T12:53:38.059Z,9.50
2023-02-02T12:56:09.111Z,9.43
2023-02-02T12:58:39.457Z,9.52
2023-02-02T13:01:29.831Z,9.40
2023-02-02T13:04:21.333Z,9.46
2023-02-02T13:07:07.616Z,9.54
2023-02-02T13:09:40.495Z,9.50
2023-02-02T13:12:08.572Z,9.49
2023-02-02T13:14:38.082Z,9.58
2023-02-02T13:17:08.409Z,9.63
2023-02-02T13:19:36.945Z,9.64
2023-02-02T13:22:04.763Z,9.68
2023-02-02T13:24:33.107Z,9.70
2023-02-02T13:27:01.226Z,9.64
2023-02-02T13:29:33.137Z,9.67
2023-02-02T13:32:04.227Z,9.63
2023-02-02T13:34:37.796Z,9.59
2023-02-02T13:37:15.005Z,9.54
2023-02-02T13:39:45.231Z,9.65
2023-02-02T13:42:19.781Z,9.70
2023-02-02T13:44:49.671Z,9.64
2023-02-02T13:47:20.355Z,9.70
2023-02-02T13:49:48.931Z,9.60
2023-02-02T13:52:23.802Z,9.65
2023-02-02T13:55:09.547Z,9.54
2023-02-02T14:00:35.894Z,9.64
2023-02-02T14:03:04.730Z,9.58
2023-02-02T14:05:32.392Z,9.54
2023-02-02T14:08:00.880Z,9.35
2023-02-02T14:10:28.409Z,9.44
2023-02-02T14:12:55.459Z,9.39
2023-02-02T14:15:36.333Z,9.27
2023-02-02T14:18:04.118Z,9.16
2023-02-02T14:20:54.408Z,9.27
2023-02-02T14:23:39.367Z,9.17
2023-02-02T14:26:08.035Z,9.06
2023-02-02T14:28:41.763Z,9.06
2023-02-02T14:31:26.104Z,9.05
2023-02-02T14:34:13.829Z,9.03
2023-02-02T14:36:50.353Z,9.07
2023-02-02T14:39:18.918Z,9.01
2023-02-02T14:41:59.849Z,8.94
2023-02-02T14:44:27.275Z,9.06
2023-02-02T14:46:53.584Z,8.96
2023-02-02T14:49:22.373Z,9.03
2023-02-02T14:51:53.528Z,9.12
2023-02-02T14:54:22.649Z,9.02
2023-02-02T14:56:50.760Z,8.91
2023-02-02T14:59:18.482Z,9.05
2023-02-02T15:01:52.959Z,8.96
2023-02-02T15:04:25.707Z,8.90
2023-02-02T15:06:52.362Z,8.90
2023-02-02T15:09:42.714Z,8.71
2023-02-02T15:12:20.371Z,8.58
2023-02-02T15:14:49.247Z,8.59
2023-02-02T15:17:22.216Z,8.53
2023-02-02T15:19:51.990Z,8.50
2023-02-02T15:22:23.587Z,8.53
2023-02-02T15:24:50.309Z,8.59
2023-02-02T15:27:18.443Z,8.57
2023-02-02T15:29:46.060Z,8.49
2023-02-02T15:32:15.059Z,8.44
2023-02-02T15:34:43.906Z,8.39
2023-02-02T15:37:14.402Z,8.48
2023-02-02T15:39:41.810Z,8.47
2023-02-02T15:42:15.977Z,8.36
2023-02-02T15:44:43.249Z,8.33
2023-02-02T15:47:12.709Z,8.32
2023-02-02T15:49:39.116Z,8.30
2023-02-02T15:52:10.714Z,8.31
2023-02-02T15:54:38.363Z,8.39
2023-02-02T15:57:21.548Z,8.32
2023-02-02T15:59:47.849Z,8.30
2023-02-02T16:02:20.936Z,8.30
2023-02-02T16:04:47.328Z,8.24
2023-02-02T16:07:15.301Z,8.22
2023-02-02T16:09:43.065Z,8.23
2023-02-02T16:12:13.822Z,8.24
2023-02-02T16:14:41.185Z,8.23
2023-02-02T16:17:11.410Z,8.22
2023-02-02T16:19:39.090Z,8.21
2023-02-02T16:22:07.325Z,8.21
2023-02-02T16:24:34.688Z,8.24
2023-02-02T16:27:05.445Z,8.23
2023-02-02T16:29:32.824Z,8.28
2023-02-02T16:31:59.392Z,8.23
2023-02-02T16:34:46.346Z,8.25
2023-02-02T16:37:14.429Z,8.22
2023-02-02T16:39:41.048Z,8.18
2023-02-02T16:42:09.183Z,8.18
2023-02-02T16:44:37.982Z,8.15
2023-02-02T16:47:05.290Z,8.17
2023-02-02T16:49:31.632Z,8.19
2023-02-02T16:52:19.079Z,8.21
2023-02-02T16:54:50.404Z,8.20
2023-02-02T16:57:19.509Z,8.22
2023-02-02T16:59:47.735Z,8.19
2023-02-02T17:02:20.955Z,8.18
2023-02-02T17:04:49.552Z,8.15
2023-02-02T17:07:16.911Z,8.23
2023-02-02T17:09:44.111Z,8.16
2023-02-02T17:12:33.133Z,8.22
2023-02-02T17:15:01.290Z,8.22
2023-02-02T17:17:27.674Z,8.23
2023-02-02T17:19:54.270Z,8.32
2023-02-02T17:22:21.938Z,8.40
2023-02-02T17:24:49.400Z,8.28
2023-02-02T17:27:17.498Z,8.24
2023-02-02T17:29:45.783Z,8.28
2023-02-02T17:32:12.710Z,8.28
2023-02-02T17:34:39.006Z,8.39
2023-02-02T17:37:05.296Z,8.31
2023-02-02T17:39:31.883Z,8.28
2023-02-02T17:41:58.568Z,8.28
2023-02-02T17:44:24.888Z,8.28
2023-02-02T17:46:52.549Z,8.30
2023-02-02T17:49:18.852Z,8.29
2023-02-02T17:51:45.133Z,8.37
2023-02-02T17:54:11.951Z,8.37
2023-02-02T17:56:38.253Z,8.29
2023-02-02T17:59:04.533Z,8.39
2023-02-02T18:01:31.118Z,8.46
2023-02-02T18:03:58.997Z,8.44
2023-02-02T18:06:25.405Z,8.42
2023-02-02T18:08:51.675Z,8.38
2023-02-02T18:11:17.995Z,8.37
2023-02-02T18:13:44.427Z,8.36
2023-02-02T18:16:11.370Z,8.34
2023-02-02T18:18:37.763Z,8.37
2023-02-02T18:21:08.820Z,8.37
2023-02-02T18:23:35.299Z,8.31
2023-02-02T18:26:08.149Z,8.38
2023-02-02T18:28:34.443Z,8.32
2023-02-02T18:31:07.007Z,8.33
2023-02-02T18:33:33.432Z,8.37
2023-02-02T18:35:59.841Z,8.33
2023-02-02T18:38:27.498Z,8.44
2023-02-02T18:40:57.190Z,8.42
2023-02-02T18:43:23.475Z,8.43
2023-02-02T18:45:56.484Z,8.42
2023-02-02T18:48:22.826Z,8.55
2023-02-02T18:50:49.118Z,8.46
2023-02-02T18:53:15.418Z,8.43
2023-02-02T18:55:43.146Z,8.44
2023-02-02T18:58:09.428Z,8.47
2023-02-02T19:00:35.913Z,8.50
2023-02-02T19:03:02.250Z,8.48
2023-02-02T19:05:28.748Z,8.47
2023-02-02T19:07:55.198Z,8.47
2023-02-02T19:10:21.860Z,8.50
2023-02-02T19:12:52.131Z,8.61
2023-02-02T19:15:18.426Z,8.52
2023-02-02T19:17:46.628Z,8.55
2023-02-02T19:20:19.093Z,8.52
2023-02-02T19:22:45.353Z,8.48
2023-02-02T19:25:12.715Z,8.45
2023-02-02T19:27:39.003Z,8.51
2023-02-02T19:30:09.342Z,8.48
2023-02-02T19:32:35.805Z,8.40
2023-02-02T19:35:02.129Z,8.48
2023-02-02T19:37:29.337Z,8.55
2023-02-02T19:40:02.035Z,8.54
2023-02-02T19:42:28.377Z,8.49
2023-02-02T19:44:56.228Z,8.54
2023-02-02T19:47:27.814Z,8.51
2023-02-02T19:49:54.166Z,8.52
2023-02-02T19:52:22.749Z,8.55
2023-02-02T19:54:49.274Z,8.50
2023-02-02T19:57:18.993Z,8.46
2023-02-02T19:59:46.709Z,8.46
2023-02-02T20:02:24.498Z,8.50
2023-02-02T20:04:58.605Z,8.47
2023-02-02T20:07:24.930Z,8.46
2023-02-02T20:09:51.188Z,8.53
2023-02-02T20:12:18.052Z,8.57
2023-02-02T20:14:44.394Z,8.52
2023-02-02T20:17:13.557Z,8.45
2023-02-02T20:19:40.324Z,8.49
2023-02-02T20:22:20.465Z,8.46
2023-02-02T20:24:46.733Z,8.50
2023-02-02T20:27:14.130Z,8.50
2023-02-02T20:29:41.675Z,8.67
2023-02-02T20:32:14.539Z,8.63
2023-02-02T20:34:43.351Z,8.65
2023-02-02T20:37:16.361Z,8.56
2023-02-02T20:39:45.667Z,8.58
2023-02-02T20:42:11.921Z,8.62
2023-02-02T20:44:38.175Z,8.74
2023-02-02T20:47:04.559Z,8.66
2023-02-02T20:49:31.358Z,8.78
2023-02-02T20:51:58.770Z,8.73
2023-02-02T20:54:26.416Z,8.75
2023-02-02T20:56:52.715Z,8.83
2023-02-02T20:59:19.086Z,8.75
2023-02-02T21:01:45.572Z,8.82
2023-02-02T21:04:11.839Z,8.82
2023-02-02T21:06:39.388Z,8.81
2023-02-02T21:09:06.581Z,8.81
2023-02-02T21:11:34.306Z,8.71
2023-02-02T21:14:00.615Z,8.68
2023-02-02T21:16:27.225Z,8.82
2023-02-02T21:18:53.699Z,8.71
2023-02-02T21:21:20.291Z,8.70
2023-02-02T21:23:46.645Z,8.80
2023-02-02T21:26:13.028Z,8.79
2023-02-02T21:28:40.993Z,8.69
2023-02-02T21:31:07.380Z,8.70
2023-02-02T21:33:33.836Z,8.74
2023-02-02T21:36:02.945Z,8.77
2023-02-02T21:38:30.335Z,8.74
2023-02-02T21:40:57.719Z,8.66
2023-02-02T21:43:24.065Z,8.75
2023-02-02T21:45:51.818Z,8.80
2023-02-02T21:48:23.191Z,8.76
2023-02-02T21:50:49.520Z,8.69
2023-02-02T21:53:19.689Z,8.69
2023-02-02T21:55:46.546Z,8.79
2023-02-02T21:58:17.185Z,8.76
2023-02-02T22:00:43.513Z,8.76
2023-02-02T22:03:27.796Z,8.73
2023-02-02T22:05:59.344Z,8.82
2023-02-02T22:08:25.620Z,8.79
2023-02-02T22:10:51.898Z,8.83
2023-02-02T22:13:19.233Z,8.79
2023-02-02T22:15:46.076Z,8.82
2023-02-02T22:18:13.909Z,8.85
2023-02-02T22:20:41.614Z,8.84
2023-02-02T22:23:08.454Z,8.77
2023-02-02T22:25:36.554Z,8.86
2023-02-02T22:28:12.697Z,8.88
2023-02-02T22:30:40.212Z,8.90
2023-02-02T22:33:07.308Z,8.86
2023-02-02T22:35:33.878Z,8.82
2023-02-02T22:38:01.755Z,8.87
2023-02-02T22:40:28.677Z,8.91
2023-02-02T22:42:56.262Z,8.94
2023-02-02T22:45:23.112Z,8.90
2023-02-02T22:47:49.973Z,8.83
2023-02-02T22:50:17.143Z,8.84
2023-02-02T22:52:43.554Z,8.81
2023-02-02T22:55:11.529Z,8.89
2023-02-02T22:57:37.783Z,8.84
2023-02-02T23:00:04.840Z,8.79
2023-02-02T23:02:31.142Z,8.77
2023-02-02T23:04:57.430Z,8.80
2023-02-02T23:07:23.882Z,8.77
2023-02-02T23:09:50.151Z,8.76
2023-02-02T23:12:17.823Z,8.82
2023-02-02T23:14:44.109Z,8.87
2023-02-02T23:17:10.361Z,8.87
2023-02-02T23:19:36.659Z,8.92
2023-02-02T23:22:02.989Z,8.89
2023-02-02T23:24:29.270Z,8.97
2023-02-02T23:26:55.604Z,8.92
2023-02-02T23:29:23.301Z,8.87
2023-02-02T23:31:49.590Z,8.91
2023-02-02T23:34:15.868Z,8.89
2023-02-02T23:36:42.141Z,8.91
2023-02-02T23:39:08.698Z,8.82
2023-02-02T23:41:34.965Z,8.91
2023-02-02T23:44:01.277Z,8.87
2023-02-02T23:46:28.981Z,8.95
2023-02-02T23:48:55.346Z,8.86
2023-02-02T23:51:21.618Z,8.82
2023-02-02T23:53:47.969Z,8.87
2023-02-02T23:56:14.275Z,8.86
2023-02-02T23:58:41.385Z,8.89
